Mekhanik Pogodin — UBFH6 — position and weather

sailwx.info

Track history (hours):
 
Tides and Currents Weather Stations Pressure Air Temp Water Temp Dewpoint Dewpoint Depression Visibility Wind Speed Wind Dir Waves Ship Positions

Mekhanik Pogodin

Last reported at 2017-Oct-16 19:07 UTC. Time now 2017-Oct-17 02:13 UTC.
Position N 45°30' E 036°44'.

; draft 3 m.

Type: Ship (hazmat cat A). MMSI: 273354720.

Date/timePositionNaut miles runAvg speedWind from/ knotsBaromVisibWave heightAir tempDewpointWater temp
2017-Oct-16 19:07N 45°30' E 036°44'1 8.1
2017-Oct-16 19:00N 45°29' E 036°43'4 8.0
2017-Oct-16 18:29N 45°25' E 036°42'4 7.8
2017-Oct-16 18:01N 45°22' E 036°40'3 6.4
2017-Oct-16 17:30N 45°20' E 036°36'3 7.0
2017-Oct-16 17:00N 45°19' E 036°32'3 6.7
2017-Oct-16 16:29N 45°16' E 036°29'2 2.1
2017-Oct-16 15:33N 45°14' E 036°30'0 0.0
2017-Oct-16 15:20N 45°14' E 036°30'0 0.0
2017-Oct-16 14:05N 45°14' E 036°30'0 0.0
2017-Oct-16 11:41N 45°14' E 036°30'0 0.0
2017-Oct-15 23:05N 45°14' E 036°30'0 0.0
2017-Oct-15 22:59N 45°14' E 036°30'0 0.0
2017-Oct-15 19:29N 45°14' E 036°30'0 0.0
2017-Oct-15 17:50N 45°14' E 036°30'0 0.0
2017-Oct-15 17:30N 45°14' E 036°30'0 0.0
2017-Oct-15 16:02N 45°14' E 036°30'0 0.0
2017-Oct-15 15:53N 45°14' E 036°30'0 0.0
2017-Oct-15 14:53N 45°14' E 036°30'0 0.0
2017-Oct-15 12:23N 45°14' E 036°30'0 0.0
2017-Oct-15 09:59N 45°14' E 036°30'0 0.0
2017-Oct-15 09:17N 45°14' E 036°30'0 0.0
2017-Oct-15 08:56N 45°14' E 036°30'0 0.0
2017-Oct-15 08:20N 45°14' E 036°30'0 0.0
2017-Oct-15 07:59N 45°14' E 036°30'0 0.0
2017-Oct-15 06:38N 45°14' E 036°30'0 0.4
2017-Oct-15 06:06N 45°14' E 036°30'210 4.8
2017-Oct-13 10:30N 46°35' E 031°52'4 8.6
2017-Oct-13 10:00N 46°33' E 031°58'  
Track history (hours):
 
Tides and Currents Weather Stations Pressure Air Temp Water Temp Dewpoint Dewpoint Depression Visibility Wind Speed Wind Dir Waves Ship Positions

Mekhanik Pogodin

Last reported at 2017-Oct-16 19:07 UTC. Time now 2017-Oct-17 02:13 UTC.
Position N 45°30' E 036°44'.

; draft 3 m.

Type: Ship (hazmat cat A). MMSI: 273354720.

Date/timePositionNaut miles runAvg speedWind from/ knotsBaromVisibWave heightAir tempDewpointWater temp
2017-Oct-16 19:07N 45°30' E 036°44'1 8.1
2017-Oct-16 19:00N 45°29' E 036°43'4 8.0
2017-Oct-16 18:29N 45°25' E 036°42'4 7.8
2017-Oct-16 18:01N 45°22' E 036°40'3 6.4
2017-Oct-16 17:30N 45°20' E 036°36'3 7.0
2017-Oct-16 17:00N 45°19' E 036°32'3 6.7
2017-Oct-16 16:29N 45°16' E 036°29'2 2.1
2017-Oct-16 15:33N 45°14' E 036°30'0 0.0
2017-Oct-16 15:20N 45°14' E 036°30'0 0.0
2017-Oct-16 14:05N 45°14' E 036°30'0 0.0
2017-Oct-16 11:41N 45°14' E 036°30'0 0.0
2017-Oct-15 23:05N 45°14' E 036°30'0 0.0
2017-Oct-15 22:59N 45°14' E 036°30'0 0.0
2017-Oct-15 19:29N 45°14' E 036°30'0 0.0
2017-Oct-15 17:50N 45°14' E 036°30'0 0.0
2017-Oct-15 17:30N 45°14' E 036°30'0 0.0
2017-Oct-15 16:02N 45°14' E 036°30'0 0.0
2017-Oct-15 15:53N 45°14' E 036°30'0 0.0
2017-Oct-15 14:53N 45°14' E 036°30'0 0.0
2017-Oct-15 12:23N 45°14' E 036°30'0 0.0
2017-Oct-15 09:59N 45°14' E 036°30'0 0.0
2017-Oct-15 09:17N 45°14' E 036°30'0 0.0
2017-Oct-15 08:56N 45°14' E 036°30'0 0.0
2017-Oct-15 08:20N 45°14' E 036°30'0 0.0
2017-Oct-15 07:59N 45°14' E 036°30'0 0.0
2017-Oct-15 06:38N 45°14' E 036°30'0 0.4
2017-Oct-15 06:06N 45°14' E 036°30'210 4.8
2017-Oct-13 10:30N 46°35' E 031°52'4 8.6
2017-Oct-13 10:00N 46°33' E 031°58'  

Dump ship's entire track history